Погода Висконде-ду-Риу-Бранкуна 2 недели

Минас-Жерайс, Бразилия

13 - 26 июня
  • 13июня
    Сегодня
    +13°
    +28°
    Ясно и безоблачно
    ВремяПогодаТемператураВлажностьДавлениеВетер, м/сВероятность осадков
    00:00Ясно и безоблачно+16°C81 %717 мм0.6 м/с5 %
    03:00Ясно и безоблачно+14°C88 %716 мм0.8 м/с5 %
    06:00Ясно и безоблачно+12°C90 %717 мм0.8 м/с5 %
    09:00Ясно и безоблачно+19°C69 %719 мм0.2 м/с5 %
    12:00Ясно и безоблачно+26°C44 %718 мм3.6 м/с5 %
    15:00Ясно и безоблачно+28°C34 %717 мм3.7 м/с5 %
    18:00Ясно и безоблачно+20°C54 %716 мм1.9 м/с5 %
    21:00Ясно и безоблачно+18°C67 %717 мм1.4 м/с5 %
  • 14июня
    Пятница
    +12°
    +29°
    Ясно и безоблачно
    ВремяПогодаТемператураВлажностьДавлениеВетер, м/сВероятность осадков
    00:00Ясно и безоблачно+15°C76 %717 мм0.8 м/с5 %
    03:00Ясно и безоблачно+13°C83 %716 мм0.5 м/с5 %
    06:00Ясно и безоблачно+14°C85 %717 мм0.9 м/с5 %
    09:00Небольшая облачность+21°C71 %719 мм3.2 м/с3 %
    12:00Практически безоблачно+27°C49 %718 мм4.5 м/с7 %
    15:00Ясно и безоблачно+28°C46 %717 мм3.9 м/с5 %
    18:00Ясно и безоблачно+21°C64 %716 мм1.8 м/с5 %
    21:00Ясно и безоблачно+18°C79 %717 мм1.7 м/с5 %
  • 15июня
    Суббота
    +14°
    +30°
    Ясно и безоблачно
    ВремяПогодаТемператураВлажностьДавлениеВетер, м/сВероятность осадков
    00:00Ясно и безоблачно+15°C83 %717 мм1.0 м/с5 %
    03:00Ясно и безоблачно+14°C86 %717 мм0.8 м/с5 %
    06:00Ясно и безоблачно+13°C89 %717 мм1.1 м/с5 %
    09:00Ясно и безоблачно+20°C65 %719 мм1.0 м/с5 %
    12:00Ясно и безоблачно+27°C48 %719 мм3.6 м/с5 %
    15:00Ясно и безоблачно+29°C44 %717 мм3.5 м/с5 %
    18:00Ясно и безоблачно+22°C58 %717 мм2.7 м/с5 %
    21:00Ясно и безоблачно+20°C70 %717 мм1.7 м/с5 %
  • 16июня
    Воскресенье
    +14°
    +29°
    Ясно и безоблачно
    ВремяПогодаТемператураВлажностьДавлениеВетер, м/сВероятность осадков
    00:00Ясно и безоблачно+17°C76 %716 мм1.1 м/с5 %
    03:00Ясно и безоблачно+15°C85 %716 мм0.7 м/с5 %
    06:00Практически безоблачно+15°C90 %716 мм0.6 м/с5 %
    09:00Небольшая облачность+21°C70 %718 мм3.9 м/с5 %
    12:00Ясно и безоблачно+28°C49 %717 мм3.7 м/с2 %
    15:00Ясно и безоблачно+29°C45 %716 мм3.9 м/с5 %
    18:00Ясно и безоблачно+21°C60 %715 мм2.0 м/с5 %
    21:00Ясно и безоблачно+19°C73 %715 мм1.7 м/с5 %
  • 17июня
    Понедельник
    +15°
    +30°
    Ясно и безоблачно
    ВремяПогодаТемператураВлажностьДавлениеВетер, м/сВероятность осадков
    00:00Ясно и безоблачно+15°C80 %714 мм1.4 м/с5 %
    03:00Ясно и безоблачно+15°C86 %714 мм1.2 м/с5 %
    06:00Ясно и безоблачно+15°C87 %714 мм1.4 м/с5 %
    09:00Ясно и безоблачно+21°C70 %716 мм3.7 м/с5 %
    12:00Ясно и безоблачно+27°C48 %716 мм3.8 м/с5 %
    15:00Ясно и безоблачно+29°C42 %714 мм3.6 м/с5 %
    18:00Ясно и безоблачно+21°C57 %713 мм2.1 м/с5 %
    21:00Ясно и безоблачно+20°C63 %714 мм2.4 м/с5 %
Мы используем cookies
Соглашаюсь